This is the latest recevied weather packets stored in our database for station/object KY0TEQ-13. If no packets are shown the sender has not sent any weather packets the latest 10 day(s).
| Time | Temp. | Humidity | Pressure | Rain* | Wind** | Luminosity | Snow |
|---|---|---|---|---|---|---|---|
| 1777626014 | 1.11° C | 53% | 1300.7 hPa | 0 mm | - | 0 W/m² | - |
| 1777625714 | 2.22° C | 49% | 1300.7 hPa | 0 mm | - | 0 W/m² | - |
| 1777625409 | 2.78° C | 46% | 1300.9 hPa | 0 mm | - | 0 W/m² | - |
| 1777625106 | 5° C | 41% | 1300.9 hPa | 0 mm | - | 0 W/m² | - |
| 1777624802 | 3.33° C | 43% | 1300.7 hPa | 0 mm | - | 0 W/m² | - |
| 1777624497 | 1.67° C | 48% | 1300.7 hPa | 0 mm | - | 0 W/m² | - |
| 1777624196 | 4.44° C | 41% | 1300.7 hPa | 0 mm | - | 0 W/m² | - |
| 1777623891 | 3.89° C | 42% | 1300.7 hPa | 0 mm | - | 0 W/m² | - |
| 1777623588 | 3.89° C | 43% | 1301 hPa | 0 mm | - | 0 W/m² | - |
| 1777623287 | 4.44° C | 41% | 1300.7 hPa | 0 mm | - | 0 W/m² | - |
| 1777622982 | 2.78° C | 44% | 1300.7 hPa | 0 mm | - | 0 W/m² | - |
| 1777622679 | 2.22° C | 48% | 1300.7 hPa | 0 mm | - | 0 W/m² | - |
| 1777622376 | 3.33° C | 45% | 1300.9 hPa | 0 mm | - | 0 W/m² | - |
| 1777622073 | 2.78° C | 46% | 1300.7 hPa | 0 mm | - | 0 W/m² | - |
| 1777621768 | 3.33° C | 44% | 1300.5 hPa | 0 mm | - | 0 W/m² | - |
| 1777621465 | 3.89° C | 42% | 1300.6 hPa | 0 mm | - | 0 W/m² | - |
| 1777621160 | 3.89° C | 43% | 1300.6 hPa | 0 mm | - | 0 W/m² | - |
| 1777620857 | 3.89° C | 43% | 1300.5 hPa | 0 mm | - | 0 W/m² | - |
| 1777620553 | 4.44° C | 41% | 1300.6 hPa | 0 mm | - | 0 W/m² | - |
| 1777620250 | 4.44° C | 40% | 1300.4 hPa | 0 mm | - | 0 W/m² | - |
| 1777619947 | 5° C | 40% | 1300.6 hPa | 0 mm | - | 0 W/m² | - |
| 1777619642 | 5° C | 39% | 1300.7 hPa | 0 mm | - | 0 W/m² | - |
| 1777619337 | 5° C | 40% | 1300.6 hPa | 0 mm | - | 0 W/m² | - |
| 1777619032 | 3.89° C | 43% | 1300.4 hPa | 0 mm | - | 0 W/m² | - |
| 1777618727 | 4.44° C | 42% | 1300.5 hPa | 0 mm | - | 0 W/m² | - |
* Rain latest hour (hover to see other rain measurements)
** Current wind speed in m/s (hover to see current wind gust speed)